sensor_id;sensor_type;location;lat;lon;timestamp;pressure;altitude;pressure_sealevel;temperature;humidity
46087;BME280;31824;49.648;8.640;2022-07-23T00:01:09;100112.31;;;23.88;100.00
46087;BME280;31824;49.648;8.640;2022-07-23T00:04:11;100110.78;;;23.93;100.00
46087;BME280;31824;49.648;8.640;2022-07-23T00:07:12;100114.38;;;23.93;100.00
46087;BME280;31824;49.648;8.640;2022-07-23T00:10:14;100129.00;;;23.79;100.00
46087;BME280;31824;49.648;8.640;2022-07-23T00:13:15;100144.75;;;23.70;100.00
46087;BME280;31824;49.648;8.640;2022-07-23T00:16:17;100155.16;;;23.85;100.00
46087;BME280;31824;49.648;8.640;2022-07-23T00:19:18;100177.72;;;23.67;100.00
46087;BME280;31824;49.648;8.640;2022-07-23T00:22:20;100177.91;;;23.49;100.00
46087;BME280;31824;49.648;8.640;2022-07-23T00:25:23;100192.00;;;23.43;100.00
46087;BME280;31824;49.648;8.640;2022-07-23T00:28:31;100174.63;;;23.56;100.00
46087;BME280;31824;49.648;8.640;2022-07-23T00:31:32;100141.94;;;23.67;100.00
46087;BME280;31824;49.648;8.640;2022-07-23T00:34:37;100120.44;;;23.42;100.00
46087;BME280;31824;49.648;8.640;2022-07-23T00:37:38;100129.28;;;23.17;100.00
46087;BME280;31824;49.648;8.640;2022-07-23T00:40:40;100135.34;;;23.13;100.00
46087;BME280;31824;49.648;8.640;2022-07-23T00:43:42;100116.97;;;23.45;100.00
46087;BME280;31824;49.648;8.640;2022-07-23T00:46:52;100112.25;;;23.38;100.00
46087;BME280;31824;49.648;8.640;2022-07-23T00:49:55;100107.41;;;23.29;100.00
46087;BME280;31824;49.648;8.640;2022-07-23T00:52:56;100109.25;;;23.30;100.00
46087;BME280;31824;49.648;8.640;2022-07-23T00:55:58;100123.56;;;23.31;100.00
46087;BME280;31824;49.648;8.640;2022-07-23T00:59:00;100116.09;;;23.45;100.00
46087;BME280;31824;49.648;8.640;2022-07-23T01:02:03;100123.81;;;23.37;100.00
46087;BME280;31824;49.648;8.640;2022-07-23T01:05:06;100148.78;;;23.36;100.00
46087;BME280;31824;49.648;8.640;2022-07-23T01:08:08;100155.22;;;23.18;100.00
46087;BME280;31824;49.648;8.640;2022-07-23T01:11:09;100166.41;;;23.08;100.00
46087;BME280;31824;49.648;8.640;2022-07-23T01:14:15;100187.50;;;22.79;100.00
46087;BME280;31824;49.648;8.640;2022-07-23T01:17:17;100174.91;;;22.76;100.00
46087;BME280;31824;49.648;8.640;2022-07-23T01:20:19;100182.13;;;22.58;100.00
46087;BME280;31824;49.648;8.640;2022-07-23T01:23:20;100182.38;;;22.43;100.00
46087;BME280;31824;49.648;8.640;2022-07-23T01:26:22;100186.91;;;22.44;100.00
46087;BME280;31824;49.648;8.640;2022-07-23T01:29:23;100174.41;;;22.25;100.00
46087;BME280;31824;49.648;8.640;2022-07-23T01:32:25;100162.94;;;22.28;100.00
46087;BME280;31824;49.648;8.640;2022-07-23T01:35:26;100152.88;;;22.41;100.00
46087;BME280;31824;49.648;8.640;2022-07-23T01:38:28;100159.34;;;22.07;100.00
46087;BME280;31824;49.648;8.640;2022-07-23T01:41:30;100152.06;;;22.24;100.00
46087;BME280;31824;49.648;8.640;2022-07-23T01:44:31;100127.03;;;22.22;100.00
46087;BME280;31824;49.648;8.640;2022-07-23T01:47:33;100119.69;;;22.38;100.00
46087;BME280;31824;49.648;8.640;2022-07-23T01:50:34;100116.19;;;22.39;100.00
46087;BME280;31824;49.648;8.640;2022-07-23T01:53:35;100132.03;;;22.15;100.00
46087;BME280;31824;49.648;8.640;2022-07-23T01:56:37;100134.41;;;22.08;100.00
46087;BME280;31824;49.648;8.640;2022-07-23T01:59:38;100141.41;;;22.05;100.00
46087;BME280;31824;49.648;8.640;2022-07-23T02:02:40;100138.66;;;22.03;100.00
46087;BME280;31824;49.648;8.640;2022-07-23T02:05:42;100139.75;;;22.08;100.00
46087;BME280;31824;49.648;8.640;2022-07-23T02:08:43;100143.66;;;21.96;100.00
46087;BME280;31824;49.648;8.640;2022-07-23T02:11:47;100154.50;;;21.99;100.00
46087;BME280;31824;49.648;8.640;2022-07-23T02:14:48;100161.66;;;22.19;100.00
46087;BME280;31824;49.648;8.640;2022-07-23T02:17:50;100170.88;;;21.67;100.00
46087;BME280;31824;49.648;8.640;2022-07-23T02:20:51;100163.84;;;21.89;100.00
46087;BME280;31824;49.648;8.640;2022-07-23T02:23:53;100164.94;;;21.92;100.00
46087;BME280;31824;49.648;8.640;2022-07-23T02:26:54;100161.16;;;22.08;100.00
46087;BME280;31824;49.648;8.640;2022-07-23T02:29:56;100158.44;;;21.87;100.00
46087;BME280;31824;49.648;8.640;2022-07-23T02:32:58;100152.03;;;21.84;100.00
46087;BME280;31824;49.648;8.640;2022-07-23T02:36:00;100155.50;;;22.01;100.00
46087;BME280;31824;49.648;8.640;2022-07-23T02:39:02;100148.72;;;21.89;100.00
46087;BME280;31824;49.648;8.640;2022-07-23T02:42:04;100146.88;;;22.08;100.00
46087;BME280;31824;49.648;8.640;2022-07-23T02:45:06;100155.53;;;22.22;100.00
46087;BME280;31824;49.648;8.640;2022-07-23T02:48:08;100140.00;;;22.13;100.00
46087;BME280;31824;49.648;8.640;2022-07-23T02:51:09;100129.28;;;22.13;100.00
46087;BME280;31824;49.648;8.640;2022-07-23T02:54:16;100132.13;;;21.97;100.00
46087;BME280;31824;49.648;8.640;2022-07-23T02:57:17;100125.97;;;22.19;100.00
46087;BME280;31824;49.648;8.640;2022-07-23T03:00:19;100120.34;;;22.13;100.00
46087;BME280;31824;49.648;8.640;2022-07-23T03:03:20;100151.25;;;22.25;100.00
46087;BME280;31824;49.648;8.640;2022-07-23T03:06:22;100182.88;;;22.34;100.00
46087;BME280;31824;49.648;8.640;2022-07-23T03:09:23;100178.41;;;22.54;100.00
46087;BME280;31824;49.648;8.640;2022-07-23T03:12:27;100186.91;;;22.44;100.00
46087;BME280;31824;49.648;8.640;2022-07-23T03:15:29;100188.50;;;22.40;100.00
46087;BME280;31824;49.648;8.640;2022-07-23T03:18:30;100194.19;;;22.29;100.00
46087;BME280;31824;49.648;8.640;2022-07-23T03:21:32;100202.66;;;22.18;100.00
46087;BME280;31824;49.648;8.640;2022-07-23T03:24:33;100200.19;;;22.23;100.00
46087;BME280;31824;49.648;8.640;2022-07-23T03:27:53;100209.50;;;22.12;100.00
46087;BME280;31824;49.648;8.640;2022-07-23T03:30:54;100201.38;;;21.90;100.00
46087;BME280;31824;49.648;8.640;2022-07-23T03:33:56;100215.03;;;22.16;100.00
46087;BME280;31824;49.648;8.640;2022-07-23T03:36:58;100234.91;;;22.02;100.00
46087;BME280;31824;49.648;8.640;2022-07-23T03:40:03;100227.66;;;21.81;100.00
46087;BME280;31824;49.648;8.640;2022-07-23T03:43:05;100221.72;;;21.87;100.00
46087;BME280;31824;49.648;8.640;2022-07-23T03:46:09;100230.53;;;22.04;100.00
46087;BME280;31824;49.648;8.640;2022-07-23T03:49:11;100229.94;;;21.72;100.00
46087;BME280;31824;49.648;8.640;2022-07-23T03:52:13;100223.75;;;21.55;100.00
46087;BME280;31824;49.648;8.640;2022-07-23T03:55:15;100234.28;;;21.70;100.00
46087;BME280;31824;49.648;8.640;2022-07-23T03:58:16;100242.03;;;21.47;100.00
46087;BME280;31824;49.648;8.640;2022-07-23T04:01:18;100227.63;;;21.62;100.00
46087;BME280;31824;49.648;8.640;2022-07-23T04:04:19;100223.13;;;21.42;100.00
46087;BME280;31824;49.648;8.640;2022-07-23T04:07:21;100212.38;;;21.41;100.00
46087;BME280;31824;49.648;8.640;2022-07-23T04:10:22;100199.06;;;21.61;100.00
46087;BME280;31824;49.648;8.640;2022-07-23T04:13:24;100194.19;;;21.34;100.00
46087;BME280;31824;49.648;8.640;2022-07-23T04:16:25;100203.44;;;21.22;100.00
46087;BME280;31824;49.648;8.640;2022-07-23T04:19:27;100209.59;;;21.03;100.00
46087;BME280;31824;49.648;8.640;2022-07-23T04:22:29;100223.28;;;21.10;100.00
46087;BME280;31824;49.648;8.640;2022-07-23T04:25:31;100232.06;;;21.25;100.00
46087;BME280;31824;49.648;8.640;2022-07-23T04:28:32;100242.72;;;21.43;100.00
46087;BME280;31824;49.648;8.640;2022-07-23T04:31:34;100253.97;;;21.18;100.00
46087;BME280;31824;49.648;8.640;2022-07-23T04:34:38;100270.44;;;21.09;100.00
46087;BME280;31824;49.648;8.640;2022-07-23T04:37:39;100294.25;;;21.22;100.00
46087;BME280;31824;49.648;8.640;2022-07-23T04:40:43;100310.91;;;21.35;100.00
46087;BME280;31824;49.648;8.640;2022-07-23T04:43:45;100307.31;;;21.16;100.00
46087;BME280;31824;49.648;8.640;2022-07-23T04:46:46;100308.84;;;21.29;100.00
46087;BME280;31824;49.648;8.640;2022-07-23T04:49:50;100319.38;;;20.91;100.00
46087;BME280;31824;49.648;8.640;2022-07-23T04:52:51;100335.19;;;20.70;100.00
46087;BME280;31824;49.648;8.640;2022-07-23T04:55:53;100346.69;;;20.69;100.00
46087;BME280;31824;49.648;8.640;2022-07-23T04:58:54;100320.41;;;20.61;100.00
46087;BME280;31824;49.648;8.640;2022-07-23T05:01:56;100307.72;;;20.56;100.00
46087;BME280;31824;49.648;8.640;2022-07-23T05:04:57;100281.44;;;20.31;100.00
46087;BME280;31824;49.648;8.640;2022-07-23T05:07:59;100306.56;;;20.35;100.00
46087;BME280;31824;49.648;8.640;2022-07-23T05:11:00;100334.16;;;20.52;100.00
46087;BME280;31824;49.648;8.640;2022-07-23T05:14:02;100344.22;;;20.57;100.00
46087;BME280;31824;49.648;8.640;2022-07-23T05:17:03;100326.41;;;20.56;100.00
46087;BME280;31824;49.648;8.640;2022-07-23T05:20:05;100333.25;;;20.51;100.00
46087;BME280;31824;49.648;8.640;2022-07-23T05:23:07;100347.25;;;20.47;100.00
46087;BME280;31824;49.648;8.640;2022-07-23T05:26:09;100380.97;;;20.62;100.00
46087;BME280;31824;49.648;8.640;2022-07-23T05:29:10;100384.03;;;20.53;100.00
46087;BME280;31824;49.648;8.640;2022-07-23T05:32:12;100380.84;;;20.60;100.00
46087;BME280;31824;49.648;8.640;2022-07-23T05:35:13;100373.66;;;20.74;100.00
46087;BME280;31824;49.648;8.640;2022-07-23T05:38:15;100369.19;;;20.58;100.00
46087;BME280;31824;49.648;8.640;2022-07-23T05:41:16;100368.69;;;20.49;100.00
46087;BME280;31824;49.648;8.640;2022-07-23T05:44:19;100362.53;;;20.02;100.00
46087;BME280;31824;49.648;8.640;2022-07-23T05:47:21;100358.69;;;19.67;100.00
46087;BME280;31824;49.648;8.640;2022-07-23T05:50:23;100345.31;;;19.50;100.00
46087;BME280;31824;49.648;8.640;2022-07-23T05:53:24;100338.69;;;19.59;100.00
46087;BME280;31824;49.648;8.640;2022-07-23T05:56:26;100339.97;;;19.65;100.00
46087;BME280;31824;49.648;8.640;2022-07-23T05:59:27;100343.41;;;19.79;100.00
46087;BME280;31824;49.648;8.640;2022-07-23T06:02:29;100344.41;;;19.96;100.00
46087;BME280;31824;49.648;8.640;2022-07-23T06:05:30;100330.75;;;19.90;100.00
46087;BME280;31824;49.648;8.640;2022-07-23T06:08:32;100323.22;;;19.83;100.00
46087;BME280;31824;49.648;8.640;2022-07-23T06:11:33;100323.47;;;19.87;100.00
46087;BME280;31824;49.648;8.640;2022-07-23T06:14:35;100322.09;;;19.94;100.00
46087;BME280;31824;49.648;8.640;2022-07-23T06:17:37;100322.69;;;20.05;100.00
46087;BME280;31824;49.648;8.640;2022-07-23T06:20:40;100318.47;;;19.94;100.00
46087;BME280;31824;49.648;8.640;2022-07-23T06:23:41;100309.78;;;19.81;100.00
46087;BME280;31824;49.648;8.640;2022-07-23T06:26:43;100318.59;;;19.95;100.00
46087;BME280;31824;49.648;8.640;2022-07-23T06:29:45;100337.00;;;20.07;100.00
46087;BME280;31824;49.648;8.640;2022-07-23T06:32:48;100347.06;;;19.96;100.00
46087;BME280;31824;49.648;8.640;2022-07-23T06:35:50;100352.28;;;20.10;100.00
46087;BME280;31824;49.648;8.640;2022-07-23T06:38:51;100356.50;;;20.37;100.00
46087;BME280;31824;49.648;8.640;2022-07-23T06:41:53;100352.81;;;20.52;100.00
46087;BME280;31824;49.648;8.640;2022-07-23T06:45:01;100376.13;;;20.71;100.00
46087;BME280;31824;49.648;8.640;2022-07-23T06:48:02;100382.63;;;20.92;100.00
46087;BME280;31824;49.648;8.640;2022-07-23T06:51:04;100387.22;;;20.62;100.00
46087;BME280;31824;49.648;8.640;2022-07-23T06:54:06;100379.94;;;20.60;100.00
46087;BME280;31824;49.648;8.640;2022-07-23T06:57:07;100400.16;;;20.87;100.00
46087;BME280;31824;49.648;8.640;2022-07-23T07:00:09;100405.34;;;20.84;100.00
46087;BME280;31824;49.648;8.640;2022-07-23T07:03:11;100409.72;;;20.82;100.00
46087;BME280;31824;49.648;8.640;2022-07-23T07:06:13;100414.63;;;20.74;100.00
46087;BME280;31824;49.648;8.640;2022-07-23T07:09:14;100414.53;;;20.73;100.00
46087;BME280;31824;49.648;8.640;2022-07-23T07:12:16;100411.53;;;21.00;100.00
46087;BME280;31824;49.648;8.640;2022-07-23T07:15:17;100399.25;;;21.03;100.00
46087;BME280;31824;49.648;8.640;2022-07-23T07:18:20;100400.19;;;21.04;100.00
46087;BME280;31824;49.648;8.640;2022-07-23T07:21:21;100400.50;;;21.10;100.00
46087;BME280;31824;49.648;8.640;2022-07-23T07:24:23;100401.88;;;21.20;100.00
46087;BME280;31824;49.648;8.640;2022-07-23T07:27:32;100411.78;;;21.04;100.00
46087;BME280;31824;49.648;8.640;2022-07-23T07:30:35;100403.75;;;21.04;100.00
46087;BME280;31824;49.648;8.640;2022-07-23T07:33:36;100404.19;;;21.12;100.00
46087;BME280;31824;49.648;8.640;2022-07-23T07:36:38;100416.56;;;21.28;100.00
46087;BME280;31824;49.648;8.640;2022-07-23T07:39:39;100423.41;;;21.39;100.00
46087;BME280;31824;49.648;8.640;2022-07-23T07:42:50;100432.34;;;21.56;100.00
46087;BME280;31824;49.648;8.640;2022-07-23T07:45:52;100422.66;;;21.42;100.00
46087;BME280;31824;49.648;8.640;2022-07-23T07:48:54;100418.56;;;21.49;100.00
46087;BME280;31824;49.648;8.640;2022-07-23T07:51:58;100418.28;;;21.61;100.00
46087;BME280;31824;49.648;8.640;2022-07-23T07:55:00;100426.16;;;21.57;100.00
46087;BME280;31824;49.648;8.640;2022-07-23T07:58:01;100428.91;;;21.42;100.00
46087;BME280;31824;49.648;8.640;2022-07-23T08:01:03;100450.84;;;21.70;100.00
46087;BME280;31824;49.648;8.640;2022-07-23T08:04:05;100449.25;;;21.73;100.00
46087;BME280;31824;49.648;8.640;2022-07-23T08:07:07;100452.78;;;21.90;100.00
46087;BME280;31824;49.648;8.640;2022-07-23T08:10:09;100457.56;;;22.14;100.00
46087;BME280;31824;49.648;8.640;2022-07-23T08:13:15;100452.03;;;22.11;100.00
46087;BME280;31824;49.648;8.640;2022-07-23T08:16:19;100471.00;;;22.16;100.00
46087;BME280;31824;49.648;8.640;2022-07-23T08:19:21;100471.34;;;22.40;100.00
46087;BME280;31824;49.648;8.640;2022-07-23T08:22:23;100474.94;;;22.40;100.00
46087;BME280;31824;49.648;8.640;2022-07-23T08:25:30;100470.59;;;22.42;100.00
46087;BME280;31824;49.648;8.640;2022-07-23T08:28:32;100471.09;;;22.35;100.00
46087;BME280;31824;49.648;8.640;2022-07-23T08:31:34;100469.78;;;22.09;100.00
46087;BME280;31824;49.648;8.640;2022-07-23T08:34:35;100475.06;;;22.25;100.00
46087;BME280;31824;49.648;8.640;2022-07-23T08:37:44;100473.91;;;22.20;100.00
46087;BME280;31824;49.648;8.640;2022-07-23T08:40:48;100471.38;;;22.23;100.00
46087;BME280;31824;49.648;8.640;2022-07-23T08:43:51;100467.78;;;22.23;100.00
46087;BME280;31824;49.648;8.640;2022-07-23T08:46:52;100468.09;;;22.29;100.00
46087;BME280;31824;49.648;8.640;2022-07-23T08:49:54;100480.22;;;22.39;100.00
46087;BME280;31824;49.648;8.640;2022-07-23T08:52:58;100477.75;;;22.43;100.00
46087;BME280;31824;49.648;8.640;2022-07-23T08:56:01;100479.63;;;22.64;100.00
46087;BME280;31824;49.648;8.640;2022-07-23T08:59:03;100468.72;;;22.79;100.00
46087;BME280;31824;49.648;8.640;2022-07-23T09:02:05;100471.41;;;22.79;100.00
46087;BME280;31824;49.648;8.640;2022-07-23T09:05:08;100471.16;;;22.92;100.00
46087;BME280;31824;49.648;8.640;2022-07-23T09:11:16;100481.41;;;23.40;100.00
46087;BME280;31824;49.648;8.640;2022-07-23T09:14:35;100474.34;;;23.42;100.00
46087;BME280;31824;49.648;8.640;2022-07-23T09:17:40;100473.91;;;22.94;100.00
46087;BME280;31824;49.648;8.640;2022-07-23T09:20:43;100463.81;;;22.88;100.00
46087;BME280;31824;49.648;8.640;2022-07-23T09:27:06;100465.53;;;23.06;100.00
46087;BME280;31824;49.648;8.640;2022-07-23T09:30:09;100462.09;;;23.48;100.00
46087;BME280;31824;49.648;8.640;2022-07-23T09:33:13;100459.28;;;23.66;100.00
46087;BME280;31824;49.648;8.640;2022-07-23T09:36:29;100461.53;;;23.35;100.00
46087;BME280;31824;49.648;8.640;2022-07-23T09:39:32;100461.13;;;23.47;100.00
46087;BME280;31824;49.648;8.640;2022-07-23T09:42:34;100460.72;;;23.57;100.00
46087;BME280;31824;49.648;8.640;2022-07-23T09:45:36;100457.31;;;23.62;100.00
46087;BME280;31824;49.648;8.640;2022-07-23T09:48:40;100458.19;;;23.82;100.00
46087;BME280;31824;49.648;8.640;2022-07-23T09:51:56;100456.19;;;23.56;100.00
46087;BME280;31824;49.648;8.640;2022-07-23T09:55:00;100460.66;;;23.77;100.00
46087;BME280;31824;49.648;8.640;2022-07-23T09:58:03;100463.50;;;24.01;100.00
46087;BME280;31824;49.648;8.640;2022-07-23T10:01:05;100468.41;;;23.90;100.00
46087;BME280;31824;49.648;8.640;2022-07-23T10:04:07;100461.22;;;23.89;100.00
46087;BME280;31824;49.648;8.640;2022-07-23T10:07:08;100460.88;;;24.24;100.00
46087;BME280;31824;49.648;8.640;2022-07-23T10:10:13;100462.66;;;24.46;100.00
46087;BME280;31824;49.648;8.640;2022-07-23T10:13:15;100455.84;;;24.54;100.00
46087;BME280;31824;49.648;8.640;2022-07-23T10:16:22;100459.19;;;24.49;100.00
46087;BME280;31824;49.648;8.640;2022-07-23T10:19:28;100464.34;;;24.65;100.00
46087;BME280;31824;49.648;8.640;2022-07-23T10:22:43;100464.84;;;24.77;100.00
46087;BME280;31824;49.648;8.640;2022-07-23T10:25:51;100463.91;;;25.00;100.00
46087;BME280;31824;49.648;8.640;2022-07-23T10:29:52;100460.91;;;25.15;100.00
46087;BME280;31824;49.648;8.640;2022-07-23T10:35:53;100457.53;;;25.44;100.00
46087;BME280;31824;49.648;8.640;2022-07-23T10:39:08;100455.19;;;25.30;100.00
46087;BME280;31824;49.648;8.640;2022-07-23T10:42:15;100460.09;;;25.41;100.00
46087;BME280;31824;49.648;8.640;2022-07-23T10:45:27;100456.72;;;25.47;100.00
46087;BME280;31824;49.648;8.640;2022-07-23T10:48:29;100461.25;;;25.74;100.00
46087;BME280;31824;49.648;8.640;2022-07-23T10:51:32;100459.00;;;26.12;100.00
46087;BME280;31824;49.648;8.640;2022-07-23T10:54:33;100448.13;;;25.83;100.00
46087;BME280;31824;49.648;8.640;2022-07-23T10:57:50;100450.09;;;25.89;100.00
46087;BME280;31824;49.648;8.640;2022-07-23T11:00:54;100461.38;;;26.03;100.00
46087;BME280;31824;49.648;8.640;2022-07-23T11:03:56;100458.13;;;25.87;100.00
46087;BME280;31824;49.648;8.640;2022-07-23T11:09:59;100454.03;;;25.73;100.00
46087;BME280;31824;49.648;8.640;2022-07-23T11:16:25;100459.84;;;25.85;100.00
46087;BME280;31824;49.648;8.640;2022-07-23T11:19:27;100455.91;;;25.75;100.00
46087;BME280;31824;49.648;8.640;2022-07-23T11:25:37;100448.75;;;26.27;100.00
46087;BME280;31824;49.648;8.640;2022-07-23T11:28:39;100440.56;;;26.53;100.00
46087;BME280;31824;49.648;8.640;2022-07-23T11:32:07;100443.88;;;26.72;100.00
46087;BME280;31824;49.648;8.640;2022-07-23T11:35:20;100451.28;;;26.79;100.00
46087;BME280;31824;49.648;8.640;2022-07-23T11:38:23;100442.41;;;26.54;100.00
46087;BME280;31824;49.648;8.640;2022-07-23T11:41:24;100441.06;;;26.40;100.00
46087;BME280;31824;49.648;8.640;2022-07-23T11:44:30;100442.13;;;27.03;100.00
46087;BME280;31824;49.648;8.640;2022-07-23T11:47:34;100447.34;;;26.98;99.41
46087;BME280;31824;49.648;8.640;2022-07-23T11:50:36;100447.03;;;26.58;99.29
46087;BME280;31824;49.648;8.640;2022-07-23T11:53:38;100435.66;;;26.98;100.00
46087;BME280;31824;49.648;8.640;2022-07-23T11:56:55;100434.66;;;26.94;100.00
46087;BME280;31824;49.648;8.640;2022-07-23T12:00:02;100429.53;;;26.73;99.34
46087;BME280;31824;49.648;8.640;2022-07-23T12:03:05;100426.56;;;26.94;100.00
46087;BME280;31824;49.648;8.640;2022-07-23T12:06:07;100420.06;;;26.87;100.00
46087;BME280;31824;49.648;8.640;2022-07-23T12:09:10;100414.97;;;26.96;100.00
46087;BME280;31824;49.648;8.640;2022-07-23T12:12:11;100407.13;;;27.06;100.00
46087;BME280;31824;49.648;8.640;2022-07-23T12:15:14;100404.50;;;27.73;89.71
46087;BME280;31824;49.648;8.640;2022-07-23T12:18:18;100410.09;;;27.15;86.54
46087;BME280;31824;49.648;8.640;2022-07-23T12:21:20;100411.00;;;27.16;90.33
46087;BME280;31824;49.648;8.640;2022-07-23T12:24:22;100412.81;;;27.47;88.33
46087;BME280;31824;49.648;8.640;2022-07-23T12:27:24;100409.69;;;27.33;86.94
46087;BME280;31824;49.648;8.640;2022-07-23T12:30:28;100408.88;;;27.68;85.18
46087;BME280;31824;49.648;8.640;2022-07-23T12:33:39;100413.75;;;28.18;78.07
46087;BME280;31824;49.648;8.640;2022-07-23T12:36:41;100419.19;;;28.19;69.80
46087;BME280;31824;49.648;8.640;2022-07-23T12:39:45;100412.34;;;27.99;72.83
46087;BME280;31824;49.648;8.640;2022-07-23T12:42:48;100419.41;;;28.28;75.33
46087;BME280;31824;49.648;8.640;2022-07-23T12:48:54;100422.84;;;28.61;77.46
46087;BME280;31824;49.648;8.640;2022-07-23T12:51:55;100426.09;;;29.25;67.07
46087;BME280;31824;49.648;8.640;2022-07-23T12:54:57;100418.28;;;28.98;69.29
46087;BME280;31824;49.648;8.640;2022-07-23T12:58:19;100417.09;;;28.44;69.94
46087;BME280;31824;49.648;8.640;2022-07-23T13:04:26;100416.81;;;28.71;72.97
46087;BME280;31824;49.648;8.640;2022-07-23T13:07:28;100420.28;;;29.07;71.89
46087;BME280;31824;49.648;8.640;2022-07-23T13:10:29;100423.00;;;28.27;70.99
46087;BME280;31824;49.648;8.640;2022-07-23T13:13:34;100412.84;;;28.17;79.73
46087;BME280;31824;49.648;8.640;2022-07-23T13:16:36;100419.56;;;28.35;75.53
46087;BME280;31824;49.648;8.640;2022-07-23T13:19:38;100416.22;;;27.73;75.81
46087;BME280;31824;49.648;8.640;2022-07-23T13:22:40;100414.28;;;28.03;79.79
46087;BME280;31824;49.648;8.640;2022-07-23T13:25:42;100414.09;;;27.61;78.75
46087;BME280;31824;49.648;8.640;2022-07-23T13:28:43;100408.69;;;27.61;83.30
46087;BME280;31824;49.648;8.640;2022-07-23T13:31:46;100415.13;;;27.35;85.03
46087;BME280;31824;49.648;8.640;2022-07-23T13:34:49;100414.34;;;27.71;83.00
46087;BME280;31824;49.648;8.640;2022-07-23T13:37:51;100413.47;;;28.45;78.69
46087;BME280;31824;49.648;8.640;2022-07-23T13:40:53;100414.00;;;28.67;84.20
46087;BME280;31824;49.648;8.640;2022-07-23T13:43:55;100408.69;;;28.32;78.30
46087;BME280;31824;49.648;8.640;2022-07-23T13:46:58;100409.81;;;28.81;71.48
46087;BME280;31824;49.648;8.640;2022-07-23T13:50:01;100412.97;;;29.03;71.56
46087;BME280;31824;49.648;8.640;2022-07-23T13:53:07;100413.28;;;29.64;68.24
46087;BME280;31824;49.648;8.640;2022-07-23T13:56:11;100407.88;;;29.64;61.78
46087;BME280;31824;49.648;8.640;2022-07-23T13:59:12;100419.34;;;29.51;59.51
46087;BME280;31824;49.648;8.640;2022-07-23T14:02:15;100419.53;;;29.60;60.25
46087;BME280;31824;49.648;8.640;2022-07-23T14:05:23;100408.69;;;29.58;65.12
46087;BME280;31824;49.648;8.640;2022-07-23T14:08:24;100399.88;;;29.70;68.26
46087;BME280;31824;49.648;8.640;2022-07-23T14:11:26;100395.41;;;29.74;62.84
46087;BME280;31824;49.648;8.640;2022-07-23T14:14:29;100399.16;;;30.36;64.67
46087;BME280;31824;49.648;8.640;2022-07-23T14:17:31;100404.84;;;30.54;59.09
46087;BME280;31824;49.648;8.640;2022-07-23T14:20:34;100402.72;;;30.33;55.94
46087;BME280;31824;49.648;8.640;2022-07-23T14:23:35;100394.25;;;30.11;57.86
46087;BME280;31824;49.648;8.640;2022-07-23T14:26:37;100395.41;;;29.74;60.98
46087;BME280;31824;49.648;8.640;2022-07-23T14:29:39;100402.94;;;29.92;54.25
46087;BME280;31824;49.648;8.640;2022-07-23T14:32:41;100389.72;;;29.58;55.48
46087;BME280;31824;49.648;8.640;2022-07-23T14:35:43;100395.41;;;29.74;56.44
46087;BME280;31824;49.648;8.640;2022-07-23T14:38:44;100399.50;;;30.01;53.34
46087;BME280;31824;49.648;8.640;2022-07-23T14:41:46;100397.22;;;29.73;54.27
46087;BME280;31824;49.648;8.640;2022-07-23T14:44:48;100391.38;;;30.01;53.31
46087;BME280;31824;49.648;8.640;2022-07-23T14:47:49;100397.16;;;30.24;51.28
46087;BME280;31824;49.648;8.640;2022-07-23T14:50:51;100397.66;;;29.98;53.47
46087;BME280;31824;49.648;8.640;2022-07-23T14:53:52;100399.00;;;30.26;51.68
46087;BME280;31824;49.648;8.640;2022-07-23T14:56:55;100400.59;;;29.16;53.39
46087;BME280;31824;49.648;8.640;2022-07-23T14:59:57;100395.06;;;29.08;57.92
46087;BME280;31824;49.648;8.640;2022-07-23T15:02:59;100390.13;;;28.88;62.28
46087;BME280;31824;49.648;8.640;2022-07-23T15:06:01;100389.50;;;28.59;62.46
46087;BME280;31824;49.648;8.640;2022-07-23T15:09:02;100382.16;;;28.53;56.65
46087;BME280;31824;49.648;8.640;2022-07-23T15:12:07;100377.53;;;28.49;61.87
46087;BME280;31824;49.648;8.640;2022-07-23T15:15:13;100391.78;;;28.42;62.09
46087;BME280;31824;49.648;8.640;2022-07-23T15:18:16;100379.84;;;28.30;61.30
46087;BME280;31824;49.648;8.640;2022-07-23T15:21:18;100387.22;;;28.79;68.79
46087;BME280;31824;49.648;8.640;2022-07-23T15:24:20;100381.72;;;28.35;62.14
46087;BME280;31824;49.648;8.640;2022-07-23T15:27:22;100384.56;;;28.41;58.76
46087;BME280;31824;49.648;8.640;2022-07-23T15:30:26;100389.47;;;29.00;56.13
46087;BME280;31824;49.648;8.640;2022-07-23T15:33:28;100384.34;;;29.61;53.00
46087;BME280;31824;49.648;8.640;2022-07-23T15:36:30;100382.50;;;29.59;55.45
46087;BME280;31824;49.648;8.640;2022-07-23T15:39:33;100383.09;;;29.41;54.40
46087;BME280;31824;49.648;8.640;2022-07-23T15:42:35;100386.31;;;29.21;61.40
46087;BME280;31824;49.648;8.640;2022-07-23T15:45:36;100379.97;;;29.21;58.13
46087;BME280;31824;49.648;8.640;2022-07-23T15:48:40;100378.06;;;29.15;58.33
46087;BME280;31824;49.648;8.640;2022-07-23T15:51:42;100379.47;;;29.40;51.34
46087;BME280;31824;49.648;8.640;2022-07-23T15:54:48;100372.81;;;29.24;51.41
46087;BME280;31824;49.648;8.640;2022-07-23T15:57:51;100372.13;;;29.33;49.16
46087;BME280;31824;49.648;8.640;2022-07-23T16:00:54;100370.06;;;28.77;50.64
46087;BME280;31824;49.648;8.640;2022-07-23T16:03:56;100363.56;;;28.67;56.86
46087;BME280;31824;49.648;8.640;2022-07-23T16:07:00;100364.13;;;28.52;51.52
46087;BME280;31824;49.648;8.640;2022-07-23T16:10:06;100369.69;;;29.01;50.61
46087;BME280;31824;49.648;8.640;2022-07-23T16:13:08;100373.88;;;29.29;50.46